sensor_id;sensor_type;location;lat;lon;timestamp;pressure;altitude;pressure_sealevel;temperature;humidity
49627;BME280;35527;54.616;39.786;2023-03-26T00:01:27;98689.69;;;10.29;100.00
49627;BME280;35527;54.616;39.786;2023-03-26T00:04:31;98679.00;;;10.19;100.00
49627;BME280;35527;54.616;39.786;2023-03-26T00:07:35;98676.81;;;10.11;100.00
49627;BME280;35527;54.616;39.786;2023-03-26T00:10:40;98680.81;;;10.01;100.00
49627;BME280;35527;54.616;39.786;2023-03-26T00:13:43;98685.50;;;9.95;100.00
49627;BME280;35527;54.616;39.786;2023-03-26T00:16:48;98678.69;;;9.93;100.00
49627;BME280;35527;54.616;39.786;2023-03-26T00:19:53;98681.25;;;9.93;100.00
49627;BME280;35527;54.616;39.786;2023-03-26T00:22:59;98648.50;;;9.78;100.00
49627;BME280;35527;54.616;39.786;2023-03-26T00:26:05;98662.66;;;9.87;100.00
49627;BME280;35527;54.616;39.786;2023-03-26T00:29:13;98654.75;;;9.74;100.00
49627;BME280;35527;54.616;39.786;2023-03-26T00:32:17;98665.75;;;9.78;100.00
49627;BME280;35527;54.616;39.786;2023-03-26T00:35:21;98660.34;;;9.82;100.00
49627;BME280;35527;54.616;39.786;2023-03-26T00:38:27;98647.31;;;9.84;100.00
49627;BME280;35527;54.616;39.786;2023-03-26T00:41:30;98636.34;;;9.64;100.00
49627;BME280;35527;54.616;39.786;2023-03-26T00:44:36;98644.75;;;9.68;100.00
49627;BME280;35527;54.616;39.786;2023-03-26T00:47:42;98643.50;;;9.59;100.00
49627;BME280;35527;54.616;39.786;2023-03-26T00:50:47;98635.00;;;9.57;100.00
49627;BME280;35527;54.616;39.786;2023-03-26T00:53:52;98650.81;;;9.67;100.00
49627;BME280;35527;54.616;39.786;2023-03-26T00:56:55;98643.81;;;9.69;100.00
49627;BME280;35527;54.616;39.786;2023-03-26T01:00:00;98617.94;;;9.70;100.00
49627;BME280;35527;54.616;39.786;2023-03-26T01:03:18;98629.50;;;9.63;100.00
49627;BME280;35527;54.616;39.786;2023-03-26T01:06:31;98613.75;;;9.68;100.00
49627;BME280;35527;54.616;39.786;2023-03-26T01:09:42;98636.59;;;9.60;100.00
49627;BME280;35527;54.616;39.786;2023-03-26T01:12:47;98631.41;;;9.60;100.00
49627;BME280;35527;54.616;39.786;2023-03-26T01:15:51;98618.56;;;9.58;100.00
49627;BME280;35527;54.616;39.786;2023-03-26T01:18:56;98615.31;;;9.55;100.00
49627;BME280;35527;54.616;39.786;2023-03-26T01:22:01;98628.44;;;9.67;100.00
49627;BME280;35527;54.616;39.786;2023-03-26T01:25:07;98629.84;;;9.73;100.00
49627;BME280;35527;54.616;39.786;2023-03-26T01:28:10;98633.31;;;9.72;100.00
49627;BME280;35527;54.616;39.786;2023-03-26T01:41:19;98627.16;;;9.90;100.00
49627;BME280;35527;54.616;39.786;2023-03-26T01:44:34;98617.53;;;10.08;100.00
49627;BME280;35527;54.616;39.786;2023-03-26T01:47:41;98600.38;;;10.07;100.00
49627;BME280;35527;54.616;39.786;2023-03-26T01:50:45;98610.00;;;10.20;100.00
49627;BME280;35527;54.616;39.786;2023-03-26T01:53:50;98595.56;;;9.85;100.00
49627;BME280;35527;54.616;39.786;2023-03-26T02:00:31;98614.19;;;10.06;100.00
49627;BME280;35527;54.616;39.786;2023-03-26T02:03:44;98619.66;;;10.02;100.00
49627;BME280;35527;54.616;39.786;2023-03-26T02:07:00;98597.06;;;9.89;100.00
49627;BME280;35527;54.616;39.786;2023-03-26T02:10:13;98600.03;;;9.98;100.00
49627;BME280;35527;54.616;39.786;2023-03-26T02:13:19;98596.50;;;9.84;100.00
49627;BME280;35527;54.616;39.786;2023-03-26T02:16:25;98578.25;;;9.72;100.00
49627;BME280;35527;54.616;39.786;2023-03-26T02:19:28;98591.66;;;9.78;100.00
49627;BME280;35527;54.616;39.786;2023-03-26T02:22:33;98592.47;;;9.95;100.00
49627;BME280;35527;54.616;39.786;2023-03-26T02:25:44;98570.50;;;9.72;100.00
49627;BME280;35527;54.616;39.786;2023-03-26T02:28:49;98566.59;;;9.64;100.00
49627;BME280;35527;54.616;39.786;2023-03-26T02:31:52;98598.66;;;9.76;100.00
49627;BME280;35527;54.616;39.786;2023-03-26T02:34:55;98578.41;;;9.68;100.00
49627;BME280;35527;54.616;39.786;2023-03-26T02:37:58;98581.75;;;9.70;100.00
49627;BME280;35527;54.616;39.786;2023-03-26T02:41:01;98587.47;;;9.76;100.00
49627;BME280;35527;54.616;39.786;2023-03-26T02:44:23;98580.53;;;9.92;100.00
49627;BME280;35527;54.616;39.786;2023-03-26T02:47:53;98585.34;;;9.68;100.00
49627;BME280;35527;54.616;39.786;2023-03-26T02:51:16;98577.41;;;9.71;100.00
49627;BME280;35527;54.616;39.786;2023-03-26T02:54:34;98570.97;;;9.78;100.00
49627;BME280;35527;54.616;39.786;2023-03-26T02:57:56;98565.00;;;9.62;100.00
49627;BME280;35527;54.616;39.786;2023-03-26T03:01:06;98565.66;;;9.65;100.00
49627;BME280;35527;54.616;39.786;2023-03-26T03:04:18;98577.56;;;9.84;100.00
49627;BME280;35527;54.616;39.786;2023-03-26T03:07:22;98563.97;;;9.96;100.00
49627;BME280;35527;54.616;39.786;2023-03-26T03:10:26;98572.63;;;9.95;100.00
49627;BME280;35527;54.616;39.786;2023-03-26T03:13:44;98567.84;;;9.73;100.00
49627;BME280;35527;54.616;39.786;2023-03-26T03:16:56;98569.66;;;9.71;100.00
49627;BME280;35527;54.616;39.786;2023-03-26T03:19:59;98547.09;;;9.59;100.00
49627;BME280;35527;54.616;39.786;2023-03-26T03:23:04;98549.94;;;9.54;100.00
49627;BME280;35527;54.616;39.786;2023-03-26T03:26:14;98571.53;;;9.53;100.00
49627;BME280;35527;54.616;39.786;2023-03-26T03:29:22;98562.34;;;9.47;100.00
49627;BME280;35527;54.616;39.786;2023-03-26T03:32:26;98541.28;;;9.39;100.00
49627;BME280;35527;54.616;39.786;2023-03-26T03:35:34;98539.22;;;9.30;100.00
49627;BME280;35527;54.616;39.786;2023-03-26T03:38:40;98563.50;;;9.58;100.00
49627;BME280;35527;54.616;39.786;2023-03-26T03:41:46;98537.88;;;9.39;100.00
49627;BME280;35527;54.616;39.786;2023-03-26T03:44:52;98542.94;;;9.56;100.00
49627;BME280;35527;54.616;39.786;2023-03-26T03:48:33;98550.84;;;9.53;100.00
49627;BME280;35527;54.616;39.786;2023-03-26T03:51:43;98554.94;;;9.57;100.00
49627;BME280;35527;54.616;39.786;2023-03-26T03:55:09;98551.94;;;9.49;100.00
49627;BME280;35527;54.616;39.786;2023-03-26T03:58:26;98549.94;;;9.54;100.00
49627;BME280;35527;54.616;39.786;2023-03-26T04:01:36;98544.09;;;9.51;100.00
49627;BME280;35527;54.616;39.786;2023-03-26T04:04:45;98533.69;;;9.52;100.00
49627;BME280;35527;54.616;39.786;2023-03-26T04:07:53;98545.44;;;9.42;100.00
49627;BME280;35527;54.616;39.786;2023-03-26T04:10:58;98535.00;;;9.43;100.00
49627;BME280;35527;54.616;39.786;2023-03-26T04:14:19;98533.25;;;9.60;100.00
49627;BME280;35527;54.616;39.786;2023-03-26T04:17:32;98519.53;;;9.59;100.00
49627;BME280;35527;54.616;39.786;2023-03-26T04:20:40;98529.69;;;9.62;100.00
49627;BME280;35527;54.616;39.786;2023-03-26T04:23:55;98517.78;;;9.44;100.00
49627;BME280;35527;54.616;39.786;2023-03-26T04:27:29;98525.16;;;9.82;100.00
49627;BME280;35527;54.616;39.786;2023-03-26T04:30:47;98523.38;;;9.82;100.00
49627;BME280;35527;54.616;39.786;2023-03-26T04:34:08;98514.81;;;9.82;100.00
49627;BME280;35527;54.616;39.786;2023-03-26T04:37:33;98534.44;;;9.70;100.00
49627;BME280;35527;54.616;39.786;2023-03-26T04:40:45;98530.50;;;9.63;100.00
49627;BME280;35527;54.616;39.786;2023-03-26T04:44:09;98531.28;;;9.49;100.00
49627;BME280;35527;54.616;39.786;2023-03-26T04:47:25;98523.34;;;9.68;100.00
49627;BME280;35527;54.616;39.786;2023-03-26T04:50:31;98504.91;;;9.74;100.00
49627;BME280;35527;54.616;39.786;2023-03-26T04:53:35;98495.69;;;9.54;100.00
49627;BME280;35527;54.616;39.786;2023-03-26T04:57:01;98489.94;;;9.65;100.00
49627;BME280;35527;54.616;39.786;2023-03-26T05:00:27;98497.28;;;9.57;100.00
49627;BME280;35527;54.616;39.786;2023-03-26T05:03:35;98504.09;;;9.58;100.00
49627;BME280;35527;54.616;39.786;2023-03-26T05:06:45;98520.22;;;9.77;100.00
49627;BME280;35527;54.616;39.786;2023-03-26T05:09:56;98513.59;;;9.73;100.00
49627;BME280;35527;54.616;39.786;2023-03-26T05:13:11;98505.72;;;9.75;100.00
49627;BME280;35527;54.616;39.786;2023-03-26T05:16:23;98513.59;;;9.73;100.00
49627;BME280;35527;54.616;39.786;2023-03-26T05:19:39;98497.00;;;9.61;100.00
49627;BME280;35527;54.616;39.786;2023-03-26T05:22:46;98506.47;;;9.77;100.00
49627;BME280;35527;54.616;39.786;2023-03-26T05:26:02;98484.09;;;9.61;100.00
49627;BME280;35527;54.616;39.786;2023-03-26T05:29:13;98479.78;;;9.62;100.00
49627;BME280;35527;54.616;39.786;2023-03-26T05:32:26;98499.25;;;9.67;100.00
49627;BME280;35527;54.616;39.786;2023-03-26T05:35:30;98499.03;;;9.86;100.00
49627;BME280;35527;54.616;39.786;2023-03-26T05:38:35;98501.03;;;9.81;100.00
49627;BME280;35527;54.616;39.786;2023-03-26T05:41:46;98488.81;;;9.69;100.00
49627;BME280;35527;54.616;39.786;2023-03-26T05:44:48;98489.22;;;9.77;100.00
49627;BME280;35527;54.616;39.786;2023-03-26T05:47:58;98498.31;;;9.68;100.00
49627;BME280;35527;54.616;39.786;2023-03-26T05:51:03;98498.16;;;9.72;100.00
49627;BME280;35527;54.616;39.786;2023-03-26T05:54:15;98475.44;;;9.46;100.00
49627;BME280;35527;54.616;39.786;2023-03-26T05:57:39;98485.75;;;9.62;100.00
49627;BME280;35527;54.616;39.786;2023-03-26T06:01:06;98496.44;;;9.86;100.00
49627;BME280;35527;54.616;39.786;2023-03-26T06:04:30;98473.44;;;9.52;100.00
49627;BME280;35527;54.616;39.786;2023-03-26T06:07:53;98486.34;;;9.67;100.00
49627;BME280;35527;54.616;39.786;2023-03-26T06:11:05;98480.28;;;9.83;100.00
49627;BME280;35527;54.616;39.786;2023-03-26T06:14:13;98474.50;;;9.93;100.00
49627;BME280;35527;54.616;39.786;2023-03-26T06:17:37;98473.97;;;10.03;100.00
49627;BME280;35527;54.616;39.786;2023-03-26T06:21:01;98463.84;;;10.14;100.00
49627;BME280;35527;54.616;39.786;2023-03-26T06:24:35;98460.09;;;10.34;100.00
49627;BME280;35527;54.616;39.786;2023-03-26T06:27:57;98462.50;;;10.51;100.00
49627;BME280;35527;54.616;39.786;2023-03-26T06:31:20;98462.47;;;10.80;100.00
49627;BME280;35527;54.616;39.786;2023-03-26T06:34:45;98464.69;;;12.20;100.00
49627;BME280;35527;54.616;39.786;2023-03-26T06:37:48;98463.03;;;12.06;98.95
49627;BME280;35527;54.616;39.786;2023-03-26T06:40:51;98472.47;;;12.46;97.90
49627;BME280;35527;54.616;39.786;2023-03-26T06:43:59;98473.09;;;12.62;95.38
49627;BME280;35527;54.616;39.786;2023-03-26T06:47:21;98467.63;;;12.91;94.44
49627;BME280;35527;54.616;39.786;2023-03-26T06:50:24;98466.47;;;13.32;92.70
49627;BME280;35527;54.616;39.786;2023-03-26T06:53:28;98433.94;;;13.50;88.41
49627;BME280;35527;54.616;39.786;2023-03-26T06:57:02;98443.28;;;13.77;88.08
49627;BME280;35527;54.616;39.786;2023-03-26T07:00:41;98439.84;;;13.87;83.76
49627;BME280;35527;54.616;39.786;2023-03-26T07:04:03;98441.06;;;13.48;84.85
49627;BME280;35527;54.616;39.786;2023-03-26T07:07:25;98447.69;;;13.15;87.96
49627;BME280;35527;54.616;39.786;2023-03-26T07:11:04;98440.59;;;12.93;89.54
49627;BME280;35527;54.616;39.786;2023-03-26T07:14:41;98438.34;;;13.25;89.53
49627;BME280;35527;54.616;39.786;2023-03-26T07:18:18;98439.22;;;13.37;87.07
49627;BME280;35527;54.616;39.786;2023-03-26T07:21:23;98452.78;;;13.65;86.21
49627;BME280;35527;54.616;39.786;2023-03-26T07:24:26;98422.78;;;13.61;83.78
49627;BME280;35527;54.616;39.786;2023-03-26T07:31:39;98444.88;;;14.24;81.55
49627;BME280;35527;54.616;39.786;2023-03-26T07:35:02;98437.91;;;14.92;75.92
49627;BME280;35527;54.616;39.786;2023-03-26T07:38:41;98443.53;;;14.54;74.64
49627;BME280;35527;54.616;39.786;2023-03-26T07:45:53;98411.97;;;13.89;80.17
49627;BME280;35527;54.616;39.786;2023-03-26T07:49:21;98420.59;;;13.90;80.09
49627;BME280;35527;54.616;39.786;2023-03-26T07:52:45;98444.84;;;14.02;77.73
49627;BME280;35527;54.616;39.786;2023-03-26T07:56:35;98401.94;;;14.07;76.67
49627;BME280;35527;54.616;39.786;2023-03-26T08:00:25;98394.72;;;14.45;74.35
49627;BME280;35527;54.616;39.786;2023-03-26T08:07:29;98408.16;;;15.06;68.98
49627;BME280;35527;54.616;39.786;2023-03-26T08:14:22;98392.75;;;14.48;70.65
49627;BME280;35527;54.616;39.786;2023-03-26T08:17:37;98404.56;;;14.41;70.50
49627;BME280;35527;54.616;39.786;2023-03-26T08:20:49;98395.34;;;14.26;71.71
49627;BME280;35527;54.616;39.786;2023-03-26T08:31:12;98400.69;;;13.66;75.97
49627;BME280;35527;54.616;39.786;2023-03-26T08:34:20;98422.66;;;13.62;76.60
49627;BME280;35527;54.616;39.786;2023-03-26T08:37:25;98409.81;;;13.72;73.14
49627;BME280;35527;54.616;39.786;2023-03-26T08:44:15;60318.31;;;-145.73;100.00
49627;BME280;35527;54.616;39.786;2023-03-26T09:00:30;60318.31;;;-145.73;100.00
49627;BME280;35527;54.616;39.786;2023-03-26T09:10:51;60318.31;;;-145.73;100.00
49627;BME280;35527;54.616;39.786;2023-03-26T09:21:11;60318.31;;;-145.73;100.00
49627;BME280;35527;54.616;39.786;2023-03-26T09:24:58;60318.31;;;-145.73;100.00
49627;BME280;35527;54.616;39.786;2023-03-26T09:34:43;60318.31;;;-145.73;100.00
49627;BME280;35527;54.616;39.786;2023-03-26T09:37:59;60318.31;;;-145.73;100.00
49627;BME280;35527;54.616;39.786;2023-03-26T09:55:21;60318.31;;;-145.73;100.00
49627;BME280;35527;54.616;39.786;2023-03-26T10:05:12;60318.31;;;-145.73;100.00
49627;BME280;35527;54.616;39.786;2023-03-26T10:09:01;60318.31;;;-145.73;100.00
49627;BME280;35527;54.616;39.786;2023-03-26T10:12:37;60318.31;;;-145.73;100.00
49627;BME280;35527;54.616;39.786;2023-03-26T10:22:55;60318.31;;;-145.73;100.00
49627;BME280;35527;54.616;39.786;2023-03-26T10:35:58;60318.31;;;-145.73;100.00
49627;BME280;35527;54.616;39.786;2023-03-26T10:39:10;60318.31;;;-145.73;100.00
49627;BME280;35527;54.616;39.786;2023-03-26T10:52:22;60318.31;;;-145.73;100.00
49627;BME280;35527;54.616;39.786;2023-03-26T10:58:34;60318.31;;;-145.73;100.00
49627;BME280;35527;54.616;39.786;2023-03-26T11:21:45;60318.31;;;-145.73;100.00
49627;BME280;35527;54.616;39.786;2023-03-26T11:37:58;60318.31;;;-145.73;100.00
49627;BME280;35527;54.616;39.786;2023-03-26T11:41:15;60318.31;;;-145.73;100.00
49627;BME280;35527;54.616;39.786;2023-03-26T11:44:28;60318.31;;;-145.73;100.00
49627;BME280;35527;54.616;39.786;2023-03-26T11:47:37;60318.31;;;-145.73;100.00
49627;BME280;35527;54.616;39.786;2023-03-26T11:50:54;60318.31;;;-145.73;100.00
49627;BME280;35527;54.616;39.786;2023-03-26T11:54:02;60318.31;;;-145.73;100.00
49627;BME280;35527;54.616;39.786;2023-03-26T11:57:12;60318.31;;;-145.73;100.00
49627;BME280;35527;54.616;39.786;2023-03-26T12:00:19;60318.31;;;-145.73;100.00
49627;BME280;35527;54.616;39.786;2023-03-26T12:03:27;60318.31;;;-145.73;100.00
49627;BME280;35527;54.616;39.786;2023-03-26T12:06:34;60318.31;;;-145.73;100.00
49627;BME280;35527;54.616;39.786;2023-03-26T12:09:53;60318.31;;;-145.73;100.00
49627;BME280;35527;54.616;39.786;2023-03-26T12:13:00;60318.31;;;-145.73;100.00
49627;BME280;35527;54.616;39.786;2023-03-26T12:16:18;60318.31;;;-145.73;100.00
49627;BME280;35527;54.616;39.786;2023-03-26T12:19:21;60318.31;;;-145.73;100.00
49627;BME280;35527;54.616;39.786;2023-03-26T12:22:37;60318.31;;;-145.73;100.00
49627;BME280;35527;54.616;39.786;2023-03-26T12:25:40;60318.31;;;-145.73;100.00
49627;BME280;35527;54.616;39.786;2023-03-26T12:28:53;60318.31;;;-145.73;100.00
49627;BME280;35527;54.616;39.786;2023-03-26T12:35:22;60318.31;;;-145.73;100.00
49627;BME280;35527;54.616;39.786;2023-03-26T12:38:35;60318.31;;;-145.73;100.00
49627;BME280;35527;54.616;39.786;2023-03-26T12:41:42;60318.31;;;-145.73;100.00
49627;BME280;35527;54.616;39.786;2023-03-26T12:44:50;60318.31;;;-145.73;100.00
49627;BME280;35527;54.616;39.786;2023-03-26T12:48:02;60318.31;;;-145.73;100.00
49627;BME280;35527;54.616;39.786;2023-03-26T12:57:35;60318.31;;;-145.73;100.00
49627;BME280;35527;54.616;39.786;2023-03-26T13:00:55;60318.31;;;-145.73;100.00
49627;BME280;35527;54.616;39.786;2023-03-26T13:25:08;60318.31;;;-145.73;100.00
49627;BME280;35527;54.616;39.786;2023-03-26T13:41:50;60318.31;;;-145.73;100.00
49627;BME280;35527;54.616;39.786;2023-03-26T13:48:59;60318.31;;;-145.73;100.00
49627;BME280;35527;54.616;39.786;2023-03-26T13:52:25;60318.31;;;-145.73;100.00
49627;BME280;35527;54.616;39.786;2023-03-26T13:55:44;60318.31;;;-145.73;100.00
49627;BME280;35527;54.616;39.786;2023-03-26T13:58:54;60318.31;;;-145.73;100.00
49627;BME280;35527;54.616;39.786;2023-03-26T14:02:09;60318.31;;;-145.73;100.00
49627;BME280;35527;54.616;39.786;2023-03-26T14:05:24;60318.31;;;-145.73;100.00
49627;BME280;35527;54.616;39.786;2023-03-26T14:08:35;60318.31;;;-145.73;100.00
49627;BME280;35527;54.616;39.786;2023-03-26T14:15:01;60318.31;;;-145.73;100.00
49627;BME280;35527;54.616;39.786;2023-03-26T14:18:42;60318.31;;;-145.73;100.00
49627;BME280;35527;54.616;39.786;2023-03-26T14:22:59;60318.31;;;-145.73;100.00
49627;BME280;35527;54.616;39.786;2023-03-26T14:29:04;60318.31;;;-145.73;100.00
49627;BME280;35527;54.616;39.786;2023-03-26T14:35:34;60318.31;;;-145.73;100.00
49627;BME280;35527;54.616;39.786;2023-03-26T14:42:41;60318.31;;;-145.73;100.00
49627;BME280;35527;54.616;39.786;2023-03-26T15:06:22;60318.31;;;-145.73;100.00
49627;BME280;35527;54.616;39.786;2023-03-26T15:28:21;60318.31;;;-145.73;100.00
49627;BME280;35527;54.616;39.786;2023-03-26T15:41:43;60318.31;;;-145.73;100.00
49627;BME280;35527;54.616;39.786;2023-03-26T15:44:59;60318.31;;;-145.73;100.00
49627;BME280;35527;54.616;39.786;2023-03-26T15:54:44;60318.31;;;-145.73;100.00
49627;BME280;35527;54.616;39.786;2023-03-26T16:05:01;60318.31;;;-145.73;100.00
49627;BME280;35527;54.616;39.786;2023-03-26T16:08:34;60318.31;;;-145.73;100.00
49627;BME280;35527;54.616;39.786;2023-03-26T16:24:34;60318.31;;;-145.73;100.00
49627;BME280;35527;54.616;39.786;2023-03-26T16:27:40;60318.31;;;-145.73;100.00
49627;BME280;35527;54.616;39.786;2023-03-26T16:30:43;60318.31;;;-145.73;100.00
49627;BME280;35527;54.616;39.786;2023-03-26T16:33:49;60318.31;;;-145.73;100.00
49627;BME280;35527;54.616;39.786;2023-03-26T16:36:57;60318.31;;;-145.73;100.00
49627;BME280;35527;54.616;39.786;2023-03-26T16:50:55;60318.31;;;-145.73;100.00
49627;BME280;35527;54.616;39.786;2023-03-26T16:54:10;60318.31;;;-145.73;100.00
49627;BME280;35527;54.616;39.786;2023-03-26T16:57:27;60318.31;;;-145.73;100.00
49627;BME280;35527;54.616;39.786;2023-03-26T17:07:41;60318.31;;;-145.73;100.00
49627;BME280;35527;54.616;39.786;2023-03-26T17:10:54;60318.31;;;-145.73;100.00
49627;BME280;35527;54.616;39.786;2023-03-26T17:14:21;60318.31;;;-145.73;100.00
49627;BME280;35527;54.616;39.786;2023-03-26T17:24:46;60318.31;;;-145.73;100.00
49627;BME280;35527;54.616;39.786;2023-03-26T17:37:53;60318.31;;;-145.73;100.00
49627;BME280;35527;54.616;39.786;2023-03-26T17:40:58;60318.31;;;-145.73;100.00
49627;BME280;35527;54.616;39.786;2023-03-26T17:44:40;60318.31;;;-145.73;100.00
49627;BME280;35527;54.616;39.786;2023-03-26T17:47:47;60318.31;;;-145.73;100.00
49627;BME280;35527;54.616;39.786;2023-03-26T17:51:02;60318.31;;;-145.73;100.00
49627;BME280;35527;54.616;39.786;2023-03-26T17:54:15;60318.31;;;-145.73;100.00
49627;BME280;35527;54.616;39.786;2023-03-26T17:57:33;60318.31;;;-145.73;100.00
49627;BME280;35527;54.616;39.786;2023-03-26T18:00:44;60318.31;;;-145.73;100.00
49627;BME280;35527;54.616;39.786;2023-03-26T18:03:57;60318.31;;;-145.73;100.00
49627;BME280;35527;54.616;39.786;2023-03-26T18:17:23;60318.31;;;-145.73;100.00
49627;BME280;35527;54.616;39.786;2023-03-26T18:20:27;60318.31;;;-145.73;100.00
49627;BME280;35527;54.616;39.786;2023-03-26T18:23:42;60318.31;;;-145.73;100.00
49627;BME280;35527;54.616;39.786;2023-03-26T18:26:51;60318.31;;;-145.73;100.00
49627;BME280;35527;54.616;39.786;2023-03-26T18:29:59;60318.31;;;-145.73;100.00
49627;BME280;35527;54.616;39.786;2023-03-26T18:33:12;60318.31;;;-145.73;100.00
49627;BME280;35527;54.616;39.786;2023-03-26T18:36:19;60318.31;;;-145.73;100.00
49627;BME280;35527;54.616;39.786;2023-03-26T18:39:22;60318.31;;;-145.73;100.00
49627;BME280;35527;54.616;39.786;2023-03-26T18:42:28;60318.31;;;-145.73;100.00
49627;BME280;35527;54.616;39.786;2023-03-26T18:45:35;60318.31;;;-145.73;100.00
49627;BME280;35527;54.616;39.786;2023-03-26T18:48:40;60318.31;;;-145.73;100.00
49627;BME280;35527;54.616;39.786;2023-03-26T18:51:48;60318.31;;;-145.73;100.00
49627;BME280;35527;54.616;39.786;2023-03-26T18:54:58;60318.31;;;-145.73;100.00
49627;BME280;35527;54.616;39.786;2023-03-26T19:01:21;60318.31;;;-145.73;100.00
49627;BME280;35527;54.616;39.786;2023-03-26T19:04:27;60318.31;;;-145.73;100.00
49627;BME280;35527;54.616;39.786;2023-03-26T19:07:34;60318.31;;;-145.73;100.00
49627;BME280;35527;54.616;39.786;2023-03-26T19:10:38;60318.31;;;-145.73;100.00
49627;BME280;35527;54.616;39.786;2023-03-26T19:13:42;60318.31;;;-145.73;100.00
49627;BME280;35527;54.616;39.786;2023-03-26T19:16:56;60318.31;;;-145.73;100.00
49627;BME280;35527;54.616;39.786;2023-03-26T19:20:07;60318.31;;;-145.73;100.00
49627;BME280;35527;54.616;39.786;2023-03-26T19:23:18;60318.31;;;-145.73;100.00
49627;BME280;35527;54.616;39.786;2023-03-26T19:26:23;60318.31;;;-145.73;100.00
49627;BME280;35527;54.616;39.786;2023-03-26T19:29:30;60318.31;;;-145.73;100.00
49627;BME280;35527;54.616;39.786;2023-03-26T19:32:35;60318.31;;;-145.73;100.00
49627;BME280;35527;54.616;39.786;2023-03-26T19:35:39;60318.31;;;-145.73;100.00
49627;BME280;35527;54.616;39.786;2023-03-26T19:41:53;60318.31;;;-145.73;100.00
49627;BME280;35527;54.616;39.786;2023-03-26T19:45:00;60318.31;;;-145.73;100.00
49627;BME280;35527;54.616;39.786;2023-03-26T19:48:08;60318.31;;;-145.73;100.00
49627;BME280;35527;54.616;39.786;2023-03-26T19:54:22;60318.31;;;-145.73;100.00
49627;BME280;35527;54.616;39.786;2023-03-26T19:57:28;60318.31;;;-145.73;100.00
49627;BME280;35527;54.616;39.786;2023-03-26T20:00:32;60318.31;;;-145.73;100.00
49627;BME280;35527;54.616;39.786;2023-03-26T20:03:41;60318.31;;;-145.73;100.00
49627;BME280;35527;54.616;39.786;2023-03-26T20:06:47;60318.31;;;-145.73;100.00
49627;BME280;35527;54.616;39.786;2023-03-26T20:09:52;60318.31;;;-145.73;100.00
49627;BME280;35527;54.616;39.786;2023-03-26T20:12:57;60318.31;;;-145.73;100.00
49627;BME280;35527;54.616;39.786;2023-03-26T20:16:28;60318.31;;;-145.73;100.00
49627;BME280;35527;54.616;39.786;2023-03-26T20:19:33;60318.31;;;-145.73;100.00
49627;BME280;35527;54.616;39.786;2023-03-26T20:22:37;60318.31;;;-145.73;100.00
49627;BME280;35527;54.616;39.786;2023-03-26T20:25:44;60318.31;;;-145.73;100.00
49627;BME280;35527;54.616;39.786;2023-03-26T20:28:52;60318.31;;;-145.73;100.00
49627;BME280;35527;54.616;39.786;2023-03-26T20:32:00;60318.31;;;-145.73;100.00
49627;BME280;35527;54.616;39.786;2023-03-26T20:35:15;60318.31;;;-145.73;100.00
49627;BME280;35527;54.616;39.786;2023-03-26T20:38:21;60318.31;;;-145.73;100.00
49627;BME280;35527;54.616;39.786;2023-03-26T20:41:27;60318.31;;;-145.73;100.00
49627;BME280;35527;54.616;39.786;2023-03-26T20:44:34;60318.31;;;-145.73;100.00
49627;BME280;35527;54.616;39.786;2023-03-26T20:47:39;60318.31;;;-145.73;100.00
49627;BME280;35527;54.616;39.786;2023-03-26T20:50:42;60318.31;;;-145.73;100.00
49627;BME280;35527;54.616;39.786;2023-03-26T20:53:51;60318.31;;;-145.73;100.00
49627;BME280;35527;54.616;39.786;2023-03-26T20:56:55;60318.31;;;-145.73;100.00
49627;BME280;35527;54.616;39.786;2023-03-26T21:00:03;60318.31;;;-145.73;100.00
49627;BME280;35527;54.616;39.786;2023-03-26T21:03:16;60318.31;;;-145.73;100.00
49627;BME280;35527;54.616;39.786;2023-03-26T21:06:19;60318.31;;;-145.73;100.00
49627;BME280;35527;54.616;39.786;2023-03-26T21:09:27;60318.31;;;-145.73;100.00
49627;BME280;35527;54.616;39.786;2023-03-26T21:12:43;60318.31;;;-145.73;100.00
49627;BME280;35527;54.616;39.786;2023-03-26T21:15:48;60318.31;;;-145.73;100.00
49627;BME280;35527;54.616;39.786;2023-03-26T21:18:51;60318.31;;;-145.73;100.00
49627;BME280;35527;54.616;39.786;2023-03-26T21:28:49;60318.31;;;-145.73;100.00
49627;BME280;35527;54.616;39.786;2023-03-26T21:31:54;60318.31;;;-145.73;100.00
49627;BME280;35527;54.616;39.786;2023-03-26T21:34:57;60318.31;;;-145.73;100.00
49627;BME280;35527;54.616;39.786;2023-03-26T21:38:03;60318.31;;;-145.73;100.00
49627;BME280;35527;54.616;39.786;2023-03-26T21:41:06;60318.31;;;-145.73;100.00
49627;BME280;35527;54.616;39.786;2023-03-26T21:44:09;60318.31;;;-145.73;100.00
49627;BME280;35527;54.616;39.786;2023-03-26T21:47:13;60318.31;;;-145.73;100.00
49627;BME280;35527;54.616;39.786;2023-03-26T21:50:22;60318.31;;;-145.73;100.00
49627;BME280;35527;54.616;39.786;2023-03-26T21:53:26;60318.31;;;-145.73;100.00
49627;BME280;35527;54.616;39.786;2023-03-26T21:56:49;60318.31;;;-145.73;100.00
49627;BME280;35527;54.616;39.786;2023-03-26T22:00:16;60318.31;;;-145.73;100.00
49627;BME280;35527;54.616;39.786;2023-03-26T22:03:45;60318.31;;;-145.73;100.00
49627;BME280;35527;54.616;39.786;2023-03-26T22:07:40;60318.31;;;-145.73;100.00
49627;BME280;35527;54.616;39.786;2023-03-26T22:10:29;60318.31;;;-145.73;100.00
49627;BME280;35527;54.616;39.786;2023-03-26T22:13:33;60318.31;;;-145.73;100.00
49627;BME280;35527;54.616;39.786;2023-03-26T22:16:36;60318.31;;;-145.73;100.00
49627;BME280;35527;54.616;39.786;2023-03-26T22:19:40;60318.31;;;-145.73;100.00